Time;durP1;ratioP1;P1;durP2;ratioP2;P2;SDS_P1;SDS_P2;PMS_P1;PMS_P2;Temp;Humidity;BMP_temperature;BMP_pressure;BME280_temperature;BME280_humidity;BME280_pressure;Samples;Min_cycle;Max_cycle;Signal;HPM_P1;HPM_P2
2021/06/28 00:01:19;;;;;;;7.70;6.10;;;24.30;69.00;;;;;;5051117;28;20713;-56
2021/06/28 00:03:46;;;;;;;7.17;6.67;;;24.30;69.40;;;;;;5050926;28;20685;-56
2021/06/28 00:06:14;;;;;;;5.97;5.47;;;24.20;69.90;;;;;;5050872;28;20672;-56
2021/06/28 00:08:41;;;;;;;6.70;6.20;;;24.20;71.40;;;;;;5050689;28;21252;-57
2021/06/28 00:11:09;;;;;;;6.80;6.30;;;24.10;72.30;;;;;;5053334;28;20701;-56
2021/06/28 00:13:37;;;;;;;6.40;5.80;;;24.00;72.40;;;;;;5055304;28;20634;-56
2021/06/28 00:16:05;;;;;;;6.60;6.07;;;23.90;72.70;;;;;;5054883;28;20653;-56
2021/06/28 00:18:33;;;;;;;6.60;6.10;;;23.80;73.50;;;;;;5054872;28;20650;-56
2021/06/28 00:21:01;;;;;;;5.90;5.50;;;23.60;74.30;;;;;;5054675;28;20698;-56
2021/06/28 00:23:28;;;;;;;6.80;6.20;;;23.60;75.00;;;;;;5054773;28;20669;-56
2021/06/28 00:25:55;;;;;;;6.47;5.97;;;23.50;75.80;;;;;;5054785;28;21194;-56
2021/06/28 00:28:22;;;;;;;8.80;6.30;;;23.40;76.50;;;;;;5054344;28;20691;-57
2021/06/28 00:30:50;;;;;;;7.80;7.20;;;23.40;76.80;;;;;;5054076;28;20657;-57
2021/06/28 00:33:18;;;;;;;6.10;5.70;;;23.40;76.80;;;;;;5054979;28;21391;-58
2021/06/28 00:35:47;;;;;;;7.23;6.60;;;23.40;77.40;;;;;;5054679;28;20663;-57
2021/06/28 00:38:14;;;;;;;5.53;5.10;;;23.30;77.70;;;;;;5054220;28;20625;-56
2021/06/28 00:40:42;;;;;;;11.30;7.10;;;23.20;78.20;;;;;;5054304;28;20716;-56
2021/06/28 00:43:09;;;;;;;5.90;5.40;;;23.20;78.90;;;;;;5053826;28;20682;-57
2021/06/28 00:45:38;;;;;;;6.50;6.00;;;23.20;79.70;;;;;;5054443;28;20660;-56
2021/06/28 00:48:06;;;;;;;5.77;5.10;;;23.20;80.10;;;;;;5054623;28;21073;-57
2021/06/28 00:50:35;;;;;;;6.03;5.60;;;23.20;80.60;;;;;;5054630;28;20654;-56
2021/06/28 00:53:05;;;;;;;5.73;5.33;;;23.20;80.80;;;;;;5054187;28;20625;-56
2021/06/28 00:55:32;;;;;;;7.07;6.40;;;23.20;81.00;;;;;;5053891;28;21186;-57
2021/06/28 00:57:59;;;;;;;6.50;5.90;;;23.20;81.30;;;;;;5053692;28;20621;-58
2021/06/28 01:00:26;;;;;;;5.37;4.97;;;23.10;81.70;;;;;;5053595;28;21259;-57
2021/06/28 01:02:55;;;;;;;6.87;6.27;;;23.10;82.30;;;;;;5054368;28;20696;-58
2021/06/28 01:05:23;;;;;;;6.20;5.80;;;23.10;82.90;;;;;;5053650;28;20633;-57
2021/06/28 01:07:50;;;;;;;6.40;5.90;;;23.10;83.40;;;;;;5053853;28;20649;-57
2021/06/28 01:10:20;;;;;;;7.00;6.40;;;23.10;83.60;;;;;;5053314;28;20763;-58
2021/06/28 01:12:48;;;;;;;6.50;5.80;;;23.20;83.60;;;;;;5053648;28;20657;-57
2021/06/28 01:15:15;;;;;;;7.13;6.53;;;23.10;83.80;;;;;;5054306;28;20658;-56
2021/06/28 01:17:42;;;;;;;8.60;6.23;;;23.10;83.90;;;;;;5052912;28;20662;-57
2021/06/28 01:20:11;;;;;;;6.77;6.17;;;23.10;84.20;;;;;;5053195;28;20681;-58
2021/06/28 01:25:09;;;;;;;6.83;6.23;;;23.10;85.20;;;;;;5045788;22;21220;-48
2021/06/28 01:27:36;;;;;;;7.53;6.93;;;23.10;85.30;;;;;;5030667;28;20671;-48
2021/06/28 01:30:06;;;;;;;7.37;6.77;;;23.00;85.40;;;;;;5030792;28;20992;-47
2021/06/28 01:32:33;;;;;;;7.33;6.73;;;23.00;85.80;;;;;;5031555;28;20697;-47
2021/06/28 01:35:00;;;;;;;6.47;5.97;;;23.00;86.00;;;;;;5011850;28;20733;-48
2021/06/28 01:37:29;;;;;;;7.27;6.67;;;23.00;86.20;;;;;;5011168;28;20692;-48
2021/06/28 01:39:57;;;;;;;7.67;6.97;;;23.00;86.60;;;;;;5010770;28;21011;-47
2021/06/28 01:42:26;;;;;;;7.70;7.00;;;23.00;86.90;;;;;;5011407;28;21224;-47
2021/06/28 01:44:53;;;;;;;6.40;5.90;;;23.00;87.20;;;;;;5011988;28;21094;-49
2021/06/28 01:47:21;;;;;;;7.13;6.60;;;23.00;87.20;;;;;;5011368;28;20667;-48
2021/06/28 01:49:48;;;;;;;7.60;5.67;;;23.00;87.00;;;;;;5010797;28;21000;-47
2021/06/28 01:52:15;;;;;;;8.40;6.00;;;23.00;86.70;;;;;;5011150;28;20648;-48
2021/06/28 01:54:42;;;;;;;7.67;6.30;;;23.00;86.50;;;;;;5010861;28;21015;-48
2021/06/28 01:57:09;;;;;;;7.03;6.43;;;23.00;86.20;;;;;;5010704;28;20706;-49
2021/06/28 01:59:38;;;;;;;5.73;5.33;;;23.10;85.90;;;;;;5011142;28;20624;-48
2021/06/28 02:02:06;;;;;;;6.53;6.03;;;23.20;85.20;;;;;;5010558;28;20688;-48
2021/06/28 02:04:34;;;;;;;11.80;5.87;;;23.30;84.50;;;;;;5010921;28;21420;-48
2021/06/28 02:07:01;;;;;;;6.80;6.30;;;23.30;83.80;;;;;;5010467;28;20662;-49
2021/06/28 02:09:30;;;;;;;6.97;6.37;;;23.50;83.10;;;;;;5010437;28;20667;-49
2021/06/28 02:11:57;;;;;;;6.83;6.33;;;23.50;82.40;;;;;;5010777;28;20620;-48
2021/06/28 02:14:25;;;;;;;7.03;6.47;;;23.60;81.90;;;;;;5010998;28;20710;-48
2021/06/28 02:16:53;;;;;;;7.27;6.57;;;23.60;82.00;;;;;;5010805;28;20639;-48
2021/06/28 02:19:21;;;;;;;10.27;7.07;;;23.60;82.10;;;;;;5010289;28;20658;-48
2021/06/28 02:21:49;;;;;;;8.07;7.37;;;23.60;82.10;;;;;;5010138;28;20667;-48
2021/06/28 02:24:16;;;;;;;7.27;6.77;;;23.50;82.60;;;;;;5009833;28;20691;-48
2021/06/28 02:26:44;;;;;;;7.60;7.00;;;23.40;83.10;;;;;;4992584;28;21063;-48
2021/06/28 02:29:11;;;;;;;8.10;7.37;;;23.40;83.30;;;;;;5010710;28;21176;-48
2021/06/28 02:31:38;;;;;;;7.27;6.67;;;23.40;83.40;;;;;;5010433;28;21144;-47
2021/06/28 02:34:06;;;;;;;7.73;7.20;;;23.50;83.00;;;;;;5010331;28;21227;-47
2021/06/28 02:36:34;;;;;;;8.50;7.70;;;23.60;83.20;;;;;;5010527;28;20628;-47
2021/06/28 02:39:01;;;;;;;8.23;7.57;;;23.60;82.60;;;;;;5009158;28;20699;-47
2021/06/28 02:41:28;;;;;;;7.23;6.60;;;23.60;83.20;;;;;;5010230;28;20631;-48
2021/06/28 02:43:56;;;;;;;7.80;7.10;;;23.60;82.90;;;;;;5010648;28;20668;-47
2021/06/28 02:46:23;;;;;;;12.03;8.53;;;23.60;83.40;;;;;;5009906;28;20698;-49
2021/06/28 02:48:50;;;;;;;9.87;9.00;;;23.50;83.60;;;;;;5010453;28;21222;-47
2021/06/28 02:51:19;;;;;;;9.53;8.80;;;23.50;84.50;;;;;;5010704;28;20632;-47
2021/06/28 02:53:46;;;;;;;8.70;7.90;;;23.40;85.00;;;;;;5009353;28;20660;-50
2021/06/28 02:56:14;;;;;;;9.43;8.63;;;23.40;85.30;;;;;;5009972;28;20635;-48
2021/06/28 02:58:41;;;;;;;8.50;7.77;;;23.40;85.40;;;;;;5010040;28;20640;-48
2021/06/28 03:01:08;;;;;;;10.80;9.17;;;23.40;86.50;;;;;;5009508;28;20686;-48
2021/06/28 03:03:36;;;;;;;9.13;8.40;;;23.40;86.40;;;;;;5010161;28;20806;-48
2021/06/28 03:06:03;;;;;;;9.97;9.27;;;23.40;86.80;;;;;;5008924;28;20635;-47
2021/06/28 03:08:32;;;;;;;10.93;10.07;;;23.30;86.80;;;;;;5009570;28;20694;-48
2021/06/28 03:11:01;;;;;;;9.27;8.53;;;23.30;87.10;;;;;;5009615;28;20701;-47
2021/06/28 03:13:29;;;;;;;9.10;8.40;;;23.20;87.60;;;;;;5009909;28;20647;-47
2021/06/28 03:15:56;;;;;;;8.57;7.87;;;23.20;87.80;;;;;;5009842;28;20694;-47
2021/06/28 03:18:23;;;;;;;11.70;8.83;;;23.10;88.10;;;;;;5009804;28;20743;-47
2021/06/28 03:20:50;;;;;;;10.50;9.53;;;23.10;88.70;;;;;;5009517;28;20628;-47
2021/06/28 03:23:18;;;;;;;9.13;8.43;;;23.10;88.90;;;;;;5009335;28;20703;-47
2021/06/28 03:25:47;;;;;;;9.70;8.90;;;23.00;89.80;;;;;;5008287;28;20710;-47
2021/06/28 03:28:14;;;;;;;10.73;9.80;;;22.90;90.00;;;;;;5009530;28;20999;-47
2021/06/28 03:30:41;;;;;;;8.23;7.43;;;22.90;90.30;;;;;;5009242;28;20644;-46
2021/06/28 03:33:10;;;;;;;9.10;8.07;;;22.90;90.60;;;;;;5010004;28;20672;-47
2021/06/28 03:35:37;;;;;;;8.83;8.13;;;22.90;90.80;;;;;;5009337;28;20628;-48
2021/06/28 03:38:04;;;;;;;9.70;8.90;;;22.80;90.90;;;;;;5008946;28;21179;-48
2021/06/28 03:40:32;;;;;;;10.60;9.60;;;22.80;91.10;;;;;;5009162;28;20694;-47
2021/06/28 03:43:02;;;;;;;8.77;8.07;;;22.80;91.30;;;;;;5009037;28;20636;-47
2021/06/28 03:45:29;;;;;;;9.37;8.57;;;22.70;91.40;;;;;;5012871;28;20688;-48
2021/06/28 03:47:56;;;;;;;9.00;8.20;;;22.70;91.50;;;;;;5013222;28;20639;-48
2021/06/28 03:50:24;;;;;;;8.60;7.27;;;22.70;91.60;;;;;;5012780;28;20719;-48
2021/06/28 03:52:51;;;;;;;8.30;7.60;;;22.70;91.70;;;;;;5013378;28;21021;-49
2021/06/28 03:55:18;;;;;;;10.30;8.60;;;22.70;91.90;;;;;;5013404;28;20719;-48
2021/06/28 03:57:45;;;;;;;9.37;8.40;;;22.70;91.90;;;;;;5002895;28;20635;-47
2021/06/28 04:00:15;;;;;;;9.77;8.97;;;22.70;92.20;;;;;;5013129;28;20655;-48
2021/06/28 04:02:43;;;;;;;8.93;8.23;;;22.70;92.40;;;;;;5013315;28;20692;-46
2021/06/28 04:05:12;;;;;;;8.00;7.40;;;22.60;92.50;;;;;;5012922;28;20682;-47
2021/06/28 04:07:39;;;;;;;10.20;9.40;;;22.60;92.60;;;;;;5011952;28;20698;-47
2021/06/28 04:10:08;;;;;;;8.23;7.63;;;22.60;92.30;;;;;;5012520;28;21525;-47
2021/06/28 04:12:35;;;;;;;9.70;8.50;;;22.60;92.20;;;;;;5012729;28;20667;-49
2021/06/28 04:15:02;;;;;;;9.07;8.37;;;22.60;91.90;;;;;;5011498;28;20700;-47
2021/06/28 04:17:31;;;;;;;8.33;7.63;;;22.60;91.80;;;;;;5009402;28;20663;-48
2021/06/28 04:19:58;;;;;;;9.20;7.40;;;22.60;91.80;;;;;;5012404;28;20656;-47
2021/06/28 04:22:25;;;;;;;8.20;7.60;;;22.60;91.70;;;;;;5012589;28;20648;-47
2021/06/28 04:24:53;;;;;;;11.00;9.10;;;22.60;91.80;;;;;;5012669;28;20699;-47
2021/06/28 04:27:20;;;;;;;8.67;7.87;;;22.50;91.80;;;;;;5012013;28;20670;-47
2021/06/28 04:29:47;;;;;;;8.10;7.50;;;22.50;92.00;;;;;;5012183;28;20647;-47
2021/06/28 04:32:14;;;;;;;8.80;8.10;;;22.50;91.90;;;;;;5011798;28;20654;-46
2021/06/28 04:34:46;;;;;;;7.40;6.73;;;22.50;92.00;;;;;;5012131;28;20683;-48
2021/06/28 04:37:13;;;;;;;8.73;7.80;;;22.50;92.20;;;;;;5012076;28;20647;-48
2021/06/28 04:39:40;;;;;;;9.57;7.23;;;22.50;92.30;;;;;;5012967;28;20678;-48
2021/06/28 04:42:08;;;;;;;8.70;8.00;;;22.50;92.40;;;;;;5012268;28;20655;-47
2021/06/28 04:44:35;;;;;;;8.03;7.43;;;22.50;92.40;;;;;;5012285;28;21034;-47
2021/06/28 04:47:03;;;;;;;8.10;7.40;;;22.40;92.30;;;;;;5012450;28;20705;-48
2021/06/28 04:49:30;;;;;;;8.73;8.03;;;22.40;92.30;;;;;;5011795;28;20656;-48
2021/06/28 04:51:59;;;;;;;8.27;6.77;;;22.40;92.50;;;;;;5012924;28;20682;-47
2021/06/28 04:54:26;;;;;;;9.10;7.20;;;22.40;92.60;;;;;;5011629;28;20694;-49
2021/06/28 04:56:53;;;;;;;7.83;7.13;;;22.50;92.70;;;;;;5011180;28;20666;-48
2021/06/28 04:59:20;;;;;;;8.13;6.87;;;22.50;92.90;;;;;;5011831;28;20619;-49
2021/06/28 05:01:47;;;;;;;7.00;6.40;;;22.50;92.90;;;;;;4993909;28;20627;-48
2021/06/28 05:04:15;;;;;;;7.73;6.73;;;22.50;92.70;;;;;;5011251;28;20699;-48
2021/06/28 05:06:42;;;;;;;7.20;6.57;;;22.60;92.70;;;;;;5012363;28;20643;-48
2021/06/28 05:09:11;;;;;;;8.17;7.43;;;22.70;92.80;;;;;;5010833;28;20631;-50
2021/06/28 05:11:38;;;;;;;13.53;8.30;;;22.70;92.80;;;;;;4992329;28;20668;-48
2021/06/28 05:14:05;;;;;;;7.53;6.83;;;22.80;92.60;;;;;;5000682;28;20965;-49
2021/06/28 05:16:32;;;;;;;7.73;6.37;;;23.00;91.70;;;;;;5011194;28;20802;-49
2021/06/28 05:18:59;;;;;;;6.37;5.87;;;23.00;91.70;;;;;;4993635;28;20686;-48
2021/06/28 05:21:27;;;;;;;7.87;6.80;;;23.10;91.20;;;;;;5009373;28;20663;-50
2021/06/28 05:23:54;;;;;;;8.40;7.37;;;23.20;91.00;;;;;;5010119;28;20692;-49
2021/06/28 05:26:23;;;;;;;7.67;6.97;;;23.30;91.30;;;;;;5010597;28;20631;-49
2021/06/28 05:28:51;;;;;;;8.57;7.77;;;23.30;91.60;;;;;;5011509;28;20647;-50
2021/06/28 05:31:18;;;;;;;7.60;7.00;;;23.40;91.50;;;;;;5010802;28;20666;-52
2021/06/28 05:33:45;;;;;;;7.80;7.10;;;23.40;91.70;;;;;;5011018;28;20679;-48
2021/06/28 05:36:12;;;;;;;7.20;6.67;;;23.40;91.90;;;;;;5011577;28;20643;-51
2021/06/28 05:38:39;;;;;;;7.70;6.50;;;23.50;91.30;;;;;;5010261;28;20668;-50
2021/06/28 05:41:07;;;;;;;8.40;7.40;;;23.50;91.30;;;;;;5011380;28;20735;-50
2021/06/28 05:43:35;;;;;;;9.07;6.87;;;23.60;90.80;;;;;;5010526;28;20691;-50
2021/06/28 05:46:02;;;;;;;6.77;6.20;;;23.70;90.90;;;;;;5010863;28;20667;-50
2021/06/28 05:48:29;;;;;;;6.40;6.00;;;23.70;90.70;;;;;;4993603;28;20628;-50
2021/06/28 05:50:57;;;;;;;7.10;6.60;;;23.90;88.90;;;;;;5010430;28;20620;-50
2021/06/28 05:53:24;;;;;;;8.40;7.63;;;24.10;89.40;;;;;;5009940;28;20663;-48
2021/06/28 05:55:52;;;;;;;7.73;7.13;;;24.10;89.10;;;;;;5010028;28;20655;-49
2021/06/28 05:58:24;;;;;;;8.40;7.70;;;24.20;88.00;;;;;;5010550;28;20761;-50
2021/06/28 06:00:52;;;;;;;8.47;7.57;;;24.30;87.90;;;;;;5010604;28;20754;-50
2021/06/28 06:03:20;;;;;;;8.87;8.10;;;24.40;87.50;;;;;;5009426;28;20683;-50
2021/06/28 06:05:48;;;;;;;8.47;7.70;;;24.40;88.00;;;;;;5011110;28;20650;-50
2021/06/28 06:08:15;;;;;;;9.67;8.77;;;24.40;89.20;;;;;;5008490;28;20667;-50
2021/06/28 06:10:42;;;;;;;10.27;9.33;;;24.40;88.90;;;;;;5010174;28;20704;-49
2021/06/28 06:13:09;;;;;;;9.10;8.30;;;24.50;89.10;;;;;;5010509;28;20682;-50
2021/06/28 06:15:37;;;;;;;8.97;8.10;;;24.40;89.40;;;;;;5010648;28;20655;-50
2021/06/28 06:18:06;;;;;;;8.33;7.63;;;24.50;89.20;;;;;;5010872;28;20619;-49
2021/06/28 06:20:33;;;;;;;10.60;8.33;;;24.50;88.50;;;;;;5010303;28;21037;-49
2021/06/28 06:23:00;;;;;;;9.93;9.20;;;24.50;89.40;;;;;;5010346;28;20639;-50
2021/06/28 06:25:27;;;;;;;9.00;8.13;;;24.50;89.90;;;;;;5010227;28;20691;-48
2021/06/28 06:27:55;;;;;;;8.23;7.53;;;24.60;87.70;;;;;;5010472;28;20731;-49
2021/06/28 06:30:22;;;;;;;8.90;8.03;;;24.70;88.70;;;;;;5009951;28;21256;-48
2021/06/28 06:32:50;;;;;;;10.40;7.50;;;24.70;88.90;;;;;;5009993;28;20642;-48
2021/06/28 06:35:20;;;;;;;9.47;8.67;;;24.80;87.40;;;;;;5010715;28;20627;-48
2021/06/28 06:37:47;;;;;;;9.33;8.63;;;24.80;88.70;;;;;;5010298;28;20730;-49
2021/06/28 06:40:15;;;;;;;8.57;7.77;;;24.70;90.00;;;;;;5010052;28;20643;-50
2021/06/28 06:42:42;;;;;;;8.17;7.47;;;24.70;88.90;;;;;;5010143;28;21180;-49
2021/06/28 06:45:11;;;;;;;11.00;7.27;;;24.80;88.00;;;;;;5010345;28;20691;-49
2021/06/28 06:47:38;;;;;;;10.43;7.33;;;24.90;87.60;;;;;;5009917;28;20660;-49
2021/06/28 06:50:06;;;;;;;7.63;6.20;;;24.80;88.00;;;;;;5009889;28;20667;-49
2021/06/28 06:52:35;;;;;;;8.70;8.00;;;24.70;88.80;;;;;;5009215;28;20643;-49
2021/06/28 06:55:03;;;;;;;8.40;6.67;;;24.70;89.50;;;;;;5009708;28;21021;-49
2021/06/28 06:57:30;;;;;;;8.47;7.67;;;24.80;88.50;;;;;;5009200;28;20662;-49
2021/06/28 06:59:57;;;;;;;9.13;8.33;;;24.80;88.70;;;;;;5010085;28;21195;-49
2021/06/28 07:02:25;;;;;;;8.23;7.37;;;24.80;88.70;;;;;;5010030;28;20648;-49
2021/06/28 07:04:52;;;;;;;6.97;6.37;;;24.80;88.80;;;;;;5010015;28;20703;-49
2021/06/28 07:07:19;;;;;;;6.13;5.63;;;24.90;87.80;;;;;;5009897;28;20686;-48
2021/06/28 07:09:48;;;;;;;6.60;6.10;;;24.90;87.10;;;;;;5009536;28;20635;-49
2021/06/28 07:12:15;;;;;;;6.33;5.83;;;24.90;86.60;;;;;;5009704;28;20659;-50
2021/06/28 07:14:42;;;;;;;7.30;5.90;;;25.10;85.80;;;;;;5009578;28;21240;-49
2021/06/28 07:17:10;;;;;;;6.00;5.40;;;25.00;86.10;;;;;;5009856;28;21001;-49
2021/06/28 07:19:37;;;;;;;5.90;5.40;;;25.10;86.20;;;;;;5009284;28;20655;-49
2021/06/28 07:22:05;;;;;;;5.80;5.40;;;25.20;84.60;;;;;;5009710;28;20662;-49
2021/06/28 07:24:32;;;;;;;7.17;6.27;;;25.20;84.10;;;;;;5009733;28;20731;-48
2021/06/28 07:27:01;;;;;;;5.67;5.20;;;25.30;83.90;;;;;;5009774;28;20649;-49
2021/06/28 07:29:28;;;;;;;6.53;5.50;;;25.30;84.00;;;;;;5009478;28;20647;-49
2021/06/28 07:31:55;;;;;;;5.80;5.37;;;25.30;83.60;;;;;;5009412;28;20667;-49
2021/06/28 07:34:22;;;;;;;5.93;5.43;;;25.40;82.90;;;;;;5009300;28;20763;-49
2021/06/28 07:36:49;;;;;;;5.83;5.43;;;25.50;82.30;;;;;;5009340;28;20651;-48
2021/06/28 07:39:17;;;;;;;7.43;5.40;;;25.60;82.20;;;;;;5009064;28;20996;-49
2021/06/28 07:41:44;;;;;;;5.83;5.23;;;25.70;82.00;;;;;;5009549;28;21250;-49
2021/06/28 07:44:12;;;;;;;5.90;5.40;;;25.80;81.40;;;;;;5009167;28;20691;-48
2021/06/28 07:46:40;;;;;;;5.67;5.23;;;25.90;81.10;;;;;;5009119;28;21170;-48
2021/06/28 07:49:07;;;;;;;5.03;4.63;;;26.00;80.40;;;;;;5009053;28;20647;-49
2021/06/28 07:51:37;;;;;;;5.10;4.60;;;26.00;79.20;;;;;;5009575;28;20656;-49
2021/06/28 07:54:04;;;;;;;6.40;4.57;;;26.00;79.00;;;;;;5009184;28;21213;-49
2021/06/28 07:56:31;;;;;;;6.23;5.00;;;26.10;78.10;;;;;;5009490;28;20663;-49
2021/06/28 07:58:58;;;;;;;4.40;4.10;;;26.30;77.80;;;;;;5009118;28;20667;-49
2021/06/28 08:01:28;;;;;;;5.20;4.70;;;26.40;77.60;;;;;;5009306;28;21038;-49
2021/06/28 08:03:56;;;;;;;5.83;5.43;;;26.40;77.90;;;;;;5008742;28;20818;-49
2021/06/28 08:06:23;;;;;;;5.50;5.10;;;26.30;77.90;;;;;;5008804;28;20687;-49
2021/06/28 08:08:51;;;;;;;6.27;5.77;;;26.40;77.80;;;;;;4996233;28;20704;-49
2021/06/28 08:11:20;;;;;;;5.00;4.60;;;26.40;76.60;;;;;;4990029;28;20660;-49
2021/06/28 08:13:48;;;;;;;4.90;4.50;;;26.40;76.00;;;;;;4989418;28;21279;-49
2021/06/28 08:16:15;;;;;;;6.03;5.47;;;26.40;76.50;;;;;;4989747;28;20617;-48
2021/06/28 08:18:44;;;;;;;5.17;4.80;;;26.40;76.40;;;;;;4989252;28;20617;-49
2021/06/28 08:21:12;;;;;;;6.00;5.60;;;26.40;76.00;;;;;;4989551;28;20655;-50
2021/06/28 08:23:39;;;;;;;4.90;4.57;;;26.40;76.10;;;;;;4989228;28;20684;-48
2021/06/28 08:26:06;;;;;;;5.50;5.00;;;26.50;75.90;;;;;;4989266;28;20699;-50
2021/06/28 08:28:34;;;;;;;5.40;5.00;;;26.50;75.20;;;;;;4989690;28;20748;-49
2021/06/28 08:31:01;;;;;;;5.40;5.00;;;26.50;76.00;;;;;;4990227;28;20664;-49
2021/06/28 08:33:28;;;;;;;6.30;5.90;;;26.50;74.90;;;;;;4992956;28;20677;-49
2021/06/28 08:35:57;;;;;;;5.33;4.97;;;26.50;74.70;;;;;;4993146;28;20648;-48
2021/06/28 08:38:25;;;;;;;4.97;4.67;;;26.40;75.00;;;;;;4992892;28;21161;-48
2021/06/28 08:40:52;;;;;;;5.10;4.70;;;26.40;75.00;;;;;;5008478;28;21149;-48
2021/06/28 08:43:19;;;;;;;5.50;5.10;;;26.30;75.20;;;;;;5011947;28;20680;-48
2021/06/28 08:45:47;;;;;;;5.30;4.90;;;26.40;74.80;;;;;;5012248;28;20707;-48
2021/06/28 08:48:15;;;;;;;7.10;5.00;;;26.40;74.40;;;;;;5012023;28;20662;-49
2021/06/28 08:50:42;;;;;;;5.33;4.93;;;26.50;74.10;;;;;;5012208;28;20652;-49
2021/06/28 08:53:13;;;;;;;5.20;4.73;;;26.60;73.80;;;;;;5012264;28;21243;-49
2021/06/28 08:55:42;;;;;;;5.77;5.20;;;26.60;73.60;;;;;;5011996;28;20732;-48
2021/06/28 08:58:09;;;;;;;4.80;4.50;;;26.60;73.60;;;;;;5012580;28;20663;-49
2021/06/28 09:00:36;;;;;;;4.97;4.57;;;26.60;74.00;;;;;;5011760;28;20674;-48
2021/06/28 09:03:05;;;;;;;5.63;5.23;;;26.70;73.60;;;;;;5012600;28;20671;-49
2021/06/28 09:05:50;;;;;;;5.97;5.37;;;26.80;72.50;;;;;;5011660;28;21050;-48
2021/06/28 09:08:22;;;;;;;5.53;5.03;;;27.00;72.40;;;;;;5012645;28;20647;-49
2021/06/28 09:10:49;;;;;;;6.20;5.60;;;27.00;71.70;;;;;;5012242;28;20670;-48
2021/06/28 09:13:17;;;;;;;6.30;5.50;;;27.10;71.00;;;;;;5012504;28;20679;-48
2021/06/28 09:15:47;;;;;;;7.30;6.10;;;27.00;71.10;;;;;;4994111;28;21028;-48
2021/06/28 09:18:19;;;;;;;5.03;4.63;;;27.00;71.40;;;;;;5012114;28;20635;-47
2021/06/28 09:20:47;;;;;;;5.13;3.80;;;26.90;70.90;;;;;;5011957;28;20639;-53
2021/06/28 09:23:23;;;;;;;4.20;3.90;;;26.90;70.90;;;;;;5011650;28;20737;-49
2021/06/28 09:25:52;;;;;;;5.10;4.73;;;26.80;70.50;;;;;;4993812;28;20725;-49
2021/06/28 09:28:32;;;;;;;4.10;3.80;;;26.80;69.30;;;;;;5011633;28;20684;-49
2021/06/28 09:30:59;;;;;;;4.97;4.57;;;26.80;68.50;;;;;;5011670;28;20663;-49
2021/06/28 09:33:26;;;;;;;5.70;5.30;;;26.80;69.60;;;;;;5011744;28;20651;-50
2021/06/28 09:35:53;;;;;;;4.93;4.53;;;26.80;70.30;;;;;;5011739;28;20770;-49
2021/06/28 09:38:32;;;;;;;4.97;4.57;;;26.80;70.60;;;;;;5012002;28;20662;-49
2021/06/28 09:41:25;;;;;;;4.10;3.80;;;26.70;70.90;;;;;;5011366;28;20627;-49
2021/06/28 09:43:53;;;;;;;5.47;5.07;;;26.50;72.40;;;;;;5011811;28;20777;-49
2021/06/28 09:46:21;;;;;;;5.50;5.07;;;26.40;72.10;;;;;;5011670;28;20710;-49
2021/06/28 09:48:49;;;;;;;5.80;4.93;;;26.40;72.90;;;;;;5011202;28;20759;-49
2021/06/28 09:51:21;;;;;;;5.30;4.80;;;26.50;73.20;;;;;;4994296;28;20631;-48
2021/06/28 09:53:49;;;;;;;3.83;3.53;;;26.50;73.10;;;;;;5011668;28;20663;-49
2021/06/28 09:56:33;;;;;;;4.77;4.00;;;26.60;72.10;;;;;;5011661;28;20743;-49
2021/06/28 09:59:18;;;;;;;8.13;4.00;;;26.60;71.40;;;;;;5011328;28;20698;-49
2021/06/28 10:01:46;;;;;;;4.07;3.77;;;26.60;71.20;;;;;;5011299;28;20631;-49
2021/06/28 10:04:38;;;;;;;4.80;4.50;;;26.60;71.10;;;;;;5010672;28;20690;-50
2021/06/28 10:07:25;;;;;;;5.03;4.63;;;26.50;71.50;;;;;;5010825;28;21310;-49
2021/06/28 10:10:08;;;;;;;5.03;4.63;;;26.50;71.80;;;;;;4998996;28;20632;-49
2021/06/28 10:12:35;;;;;;;5.00;4.60;;;26.60;71.90;;;;;;5009652;28;20649;-50
2021/06/28 10:15:03;;;;;;;5.03;4.70;;;26.70;71.20;;;;;;5010639;28;21255;-49
2021/06/28 10:17:31;;;;;;;4.30;4.00;;;26.80;70.10;;;;;;5010914;28;20651;-49
2021/06/28 10:19:58;;;;;;;4.43;4.03;;;26.70;70.50;;;;;;5011023;28;21160;-49
2021/06/28 10:22:25;;;;;;;4.30;4.00;;;26.70;70.40;;;;;;5010982;28;21002;-49
2021/06/28 10:24:53;;;;;;;4.97;4.60;;;26.70;70.60;;;;;;5010860;28;20763;-49
2021/06/28 10:27:21;;;;;;;4.30;4.00;;;26.50;70.80;;;;;;5012239;28;21068;-49
2021/06/28 10:29:49;;;;;;;4.50;4.10;;;26.60;69.10;;;;;;5011277;28;20686;-49
2021/06/28 10:32:17;;;;;;;4.63;4.33;;;26.60;68.40;;;;;;5010567;28;20636;-49
2021/06/28 10:34:49;;;;;;;4.33;4.03;;;26.70;69.80;;;;;;5010742;28;20651;-48
2021/06/28 10:37:33;;;;;;;4.77;4.37;;;26.70;69.50;;;;;;5010549;28;20649;-50
2021/06/28 10:40:01;;;;;;;3.70;3.40;;;26.70;69.00;;;;;;5010730;28;20668;-50
2021/06/28 10:42:34;;;;;;;5.23;4.30;;;26.80;69.50;;;;;;5010836;28;20708;-50
2021/06/28 10:45:01;;;;;;;4.40;4.10;;;26.80;68.50;;;;;;5010469;28;20692;-50
2021/06/28 10:47:30;;;;;;;4.93;4.23;;;26.90;68.80;;;;;;5010002;28;20695;-51
2021/06/28 10:49:58;;;;;;;3.83;3.53;;;26.90;68.50;;;;;;5009570;28;20662;-51
2021/06/28 10:52:46;;;;;;;4.30;3.90;;;26.90;68.40;;;;;;5010289;28;20652;-51
2021/06/28 10:55:36;;;;;;;3.90;3.70;;;26.80;68.70;;;;;;5009398;28;20660;-51
2021/06/28 10:58:29;;;;;;;4.60;4.30;;;26.80;68.80;;;;;;5010903;28;20623;-50
2021/06/28 11:01:03;;;;;;;4.03;3.73;;;26.80;68.60;;;;;;5009934;28;20663;-49
2021/06/28 11:03:33;;;;;;;4.50;4.20;;;26.80;68.70;;;;;;5009523;28;20674;-49
2021/06/28 11:06:21;;;;;;;4.83;4.53;;;26.80;68.70;;;;;;5009655;28;20745;-49
2021/06/28 11:09:02;;;;;;;5.10;4.60;;;26.80;68.50;;;;;;5009043;28;20628;-51
2021/06/28 11:11:55;;;;;;;4.13;3.83;;;26.90;68.60;;;;;;5009384;28;20627;-48
2021/06/28 11:14:45;;;;;;;5.70;5.30;;;26.80;68.80;;;;;;5001480;28;20667;-50
2021/06/28 11:17:15;;;;;;;5.90;4.57;;;26.90;68.20;;;;;;5008500;28;20666;-50
2021/06/28 11:20:05;;;;;;;5.17;4.77;;;27.00;67.80;;;;;;5009619;28;20620;-50
2021/06/28 11:22:44;;;;;;;4.43;4.03;;;27.20;67.40;;;;;;5009332;28;20627;-50
2021/06/28 11:25:22;;;;;;;5.37;4.97;;;27.50;66.40;;;;;;5009069;28;20639;-50
2021/06/28 11:28:09;;;;;;;5.07;4.67;;;27.70;65.60;;;;;;5009177;28;20695;-50
2021/06/28 11:30:49;;;;;;;6.63;4.93;;;27.90;64.90;;;;;;5008518;28;20686;-48
2021/06/28 11:33:16;;;;;;;4.63;4.10;;;28.00;64.40;;;;;;5009825;28;20726;-51
2021/06/28 11:35:45;;;;;;;4.20;3.80;;;28.10;63.50;;;;;;5009633;28;20701;-52
2021/06/28 11:38:23;;;;;;;4.00;3.70;;;28.10;63.60;;;;;;5009018;28;20632;-49
2021/06/28 11:40:53;;;;;;;4.67;4.20;;;28.10;63.20;;;;;;5009213;28;20659;-50
2021/06/28 11:43:36;;;;;;;5.03;4.60;;;28.10;62.90;;;;;;5009080;28;20770;-49
2021/06/28 11:46:06;;;;;;;4.50;4.20;;;28.00;62.70;;;;;;5007772;28;20667;-50
2021/06/28 11:48:41;;;;;;;4.30;3.90;;;28.00;63.00;;;;;;5010613;28;20632;-50
2021/06/28 11:51:13;;;;;;;4.87;4.57;;;28.10;64.60;;;;;;5010320;28;20632;-50
2021/06/28 11:53:43;;;;;;;5.03;4.53;;;28.10;63.40;;;;;;5010369;28;20663;-50
2021/06/28 11:56:19;;;;;;;4.40;4.10;;;28.10;63.90;;;;;;5009472;28;20711;-50
2021/06/28 11:58:54;;;;;;;5.20;4.80;;;28.20;64.10;;;;;;5010905;28;20632;-51
2021/06/28 12:01:24;;;;;;;5.13;4.60;;;28.30;62.70;;;;;;5000297;28;21165;-51
2021/06/28 12:03:51;;;;;;;4.60;4.30;;;28.40;62.60;;;;;;4989712;28;20661;-51
2021/06/28 12:06:18;;;;;;;5.13;4.77;;;28.40;62.00;;;;;;4991135;28;21161;-50
2021/06/28 12:08:45;;;;;;;5.40;5.03;;;28.50;62.20;;;;;;4993515;28;20652;-50
2021/06/28 12:11:12;;;;;;;7.73;5.57;;;28.50;62.40;;;;;;5012485;28;21164;-50
2021/06/28 12:13:43;;;;;;;5.80;5.37;;;28.50;63.70;;;;;;5013470;28;21091;-50
2021/06/28 12:16:18;;;;;;;4.97;4.67;;;28.50;60.90;;;;;;5013215;28;20660;-50
2021/06/28 12:18:46;;;;;;;4.83;4.43;;;28.50;60.80;;;;;;5012769;28;21152;-50
2021/06/28 12:21:25;;;;;;;4.67;4.23;;;28.50;61.40;;;;;;5013290;28;21006;-49
2021/06/28 12:24:03;;;;;;;6.47;6.00;;;28.50;61.00;;;;;;5012773;28;20683;-49
2021/06/28 12:26:31;;;;;;;4.97;4.50;;;28.40;60.90;;;;;;5013066;28;20699;-49
2021/06/28 12:28:58;;;;;;;4.77;4.47;;;28.20;60.90;;;;;;5012238;28;20979;-49
2021/06/28 12:31:25;;;;;;;5.60;5.20;;;28.10;62.60;;;;;;5012699;28;21013;-50
2021/06/28 12:33:57;;;;;;;5.27;4.87;;;28.20;64.20;;;;;;5012549;28;20688;-49
2021/06/28 12:36:24;;;;;;;5.40;5.00;;;28.40;63.50;;;;;;5013348;28;20659;-49
2021/06/28 12:39:00;;;;;;;11.03;5.00;;;28.40;61.60;;;;;;5012657;28;20627;-49
2021/06/28 12:41:27;;;;;;;5.20;4.90;;;28.50;62.70;;;;;;5012595;28;20655;-50
2021/06/28 12:43:54;;;;;;;5.90;5.50;;;28.50;61.40;;;;;;5012133;28;20684;-49
2021/06/28 12:46:22;;;;;;;4.90;4.50;;;28.50;60.90;;;;;;5012198;28;21033;-51
2021/06/28 12:48:50;;;;;;;6.23;4.90;;;28.50;61.20;;;;;;5012477;28;20651;-50
2021/06/28 12:51:22;;;;;;;6.63;6.03;;;28.60;61.00;;;;;;5012195;28;20638;-50
2021/06/28 12:53:49;;;;;;;5.47;5.07;;;28.70;62.20;;;;;;5012401;28;20683;-49
2021/06/28 12:56:18;;;;;;;5.00;4.70;;;28.80;62.90;;;;;;5012030;28;20660;-51
2021/06/28 12:58:46;;;;;;;5.70;5.20;;;28.90;60.70;;;;;;5012341;28;20664;-51